createdAt,value
2023-05-05T00:01:17.552Z,141.73
2023-05-05T00:03:21.452Z,137.38
2023-05-05T00:05:25.561Z,125.30
2023-05-05T00:07:28.040Z,141.25
2023-05-05T00:09:30.980Z,89.68
2023-05-05T00:11:33.528Z,88.43
2023-05-05T00:13:36.542Z,83.55
2023-05-05T00:15:42.662Z,132.30
2023-05-05T00:17:45.133Z,83.25
2023-05-05T00:19:47.691Z,94.65
2023-05-05T00:21:51.332Z,109.82
2023-05-05T00:23:53.855Z,157.10
2023-05-05T00:25:56.301Z,239.07
2023-05-05T00:27:59.365Z,182.43
2023-05-05T00:30:01.860Z,115.20
2023-05-05T00:32:07.332Z,141.07
2023-05-05T00:34:09.768Z,221.52
2023-05-05T00:36:12.287Z,225.30
2023-05-05T00:38:14.759Z,289.95
2023-05-05T00:40:18.843Z,232.52
2023-05-05T00:42:21.257Z,319.58
2023-05-05T00:44:37.405Z,298.92
2023-05-05T00:46:40.785Z,293.85
2023-05-05T00:48:46.137Z,298.92
2023-05-05T00:50:48.610Z,221.90
2023-05-05T00:52:52.884Z,226.60
2023-05-05T00:56:58.352Z,278.27
2023-05-05T00:59:02.479Z,324.23
2023-05-05T01:01:05.187Z,375.17
2023-05-05T01:03:08.525Z,388.70
2023-05-05T01:05:15.728Z,419.02
2023-05-05T01:07:31.430Z,540.38
2023-05-05T01:09:45.738Z,460.67
2023-05-05T01:11:55.903Z,479.35
2023-05-05T01:14:06.160Z,440.38
2023-05-05T01:16:14.891Z,359.10
2023-05-05T01:18:24.600Z,346.27
2023-05-05T01:20:35.869Z,321.83
2023-05-05T01:22:42.314Z,347.13
2023-05-05T01:24:57.196Z,346.10
2023-05-05T01:27:21.432Z,289.77
2023-05-05T01:29:37.157Z,264.92
2023-05-05T01:31:52.421Z,279.80
2023-05-05T01:34:01.892Z,276.13
2023-05-05T01:36:10.677Z,273.17
2023-05-05T01:38:17.119Z,279.35
2023-05-05T01:40:25.201Z,266.00
2023-05-05T01:42:30.814Z,221.80
2023-05-05T01:44:34.990Z,264.90
2023-05-05T01:46:37.676Z,274.42
2023-05-05T01:48:44.669Z,247.38
2023-05-05T01:50:48.532Z,271.80
2023-05-05T01:52:52.914Z,280.08
2023-05-05T01:54:57.916Z,327.85
2023-05-05T01:57:03.486Z,313.02
2023-05-05T01:59:07.260Z,293.48
2023-05-05T02:01:11.178Z,298.98
2023-05-05T02:03:15.951Z,292.02
2023-05-05T02:05:24.834Z,337.23
2023-05-05T02:07:28.337Z,325.63
2023-05-05T02:09:32.751Z,331.87
2023-05-05T02:11:35.703Z,347.10
2023-05-05T02:13:38.650Z,360.95
2023-05-05T02:15:43.526Z,395.75
2023-05-05T02:17:47.891Z,351.85
2023-05-05T02:21:57.002Z,384.48
2023-05-05T02:24:02.301Z,373.40
2023-05-05T02:26:07.990Z,383.30
2023-05-05T02:28:17.263Z,357.30
2023-05-05T02:30:21.066Z,383.42
2023-05-05T02:32:27.978Z,441.13
2023-05-05T02:34:35.664Z,399.70
2023-05-05T02:36:43.063Z,398.98
2023-05-05T02:38:54.124Z,358.95
2023-05-05T02:41:00.825Z,335.13
2023-05-05T02:43:06.971Z,512.38
2023-05-05T02:45:14.556Z,424.23
2023-05-05T02:47:21.093Z,363.58
2023-05-05T02:49:26.019Z,345.52
2023-05-05T02:51:33.794Z,394.25
2023-05-05T02:53:40.525Z,336.98
2023-05-05T02:55:53.129Z,311.38
2023-05-05T02:58:04.871Z,302.60
2023-05-05T03:00:23.014Z,271.70
2023-05-05T03:02:37.175Z,252.35
2023-05-05T03:04:43.229Z,260.02
2023-05-05T03:06:49.327Z,233.88
2023-05-05T03:09:02.729Z,186.50
2023-05-05T03:11:13.873Z,165.70
2023-05-05T03:13:18.498Z,171.73
2023-05-05T03:15:26.675Z,139.75
2023-05-05T03:17:31.347Z,130.93
2023-05-05T03:19:35.722Z,149.15
2023-05-05T03:21:39.440Z,156.20
2023-05-05T03:23:43.097Z,113.05
2023-05-05T03:25:54.517Z,87.60
2023-05-05T03:28:25.991Z,96.72
2023-05-05T03:30:29.458Z,96.82
2023-05-05T03:32:32.131Z,92.72
2023-05-05T03:34:37.538Z,82.60
2023-05-05T03:36:41.513Z,106.57
2023-05-05T03:38:47.017Z,133.27
2023-05-05T03:40:51.822Z,105.28
2023-05-05T03:42:57.380Z,113.45
2023-05-05T03:45:03.319Z,113.43
2023-05-05T03:47:06.212Z,118.47
2023-05-05T03:49:12.822Z,122.20
2023-05-05T03:51:17.269Z,101.95
2023-05-05T03:53:19.885Z,120.20
2023-05-05T03:55:22.714Z,107.05
2023-05-05T03:59:29.423Z,115.03
2023-05-05T04:01:35.804Z,120.07
2023-05-05T04:03:39.143Z,123.85
2023-05-05T04:07:47.546Z,110.05
2023-05-05T04:09:52.826Z,128.60
2023-05-05T04:11:56.393Z,102.72
2023-05-05T04:13:59.170Z,106.47
2023-05-05T04:16:04.149Z,130.13
2023-05-05T04:18:09.740Z,150.63
2023-05-05T04:20:12.768Z,159.10
2023-05-05T04:22:19.238Z,156.98
2023-05-05T04:24:24.970Z,147.65
2023-05-05T04:26:30.726Z,123.05
2023-05-05T04:28:33.544Z,180.73
2023-05-05T04:30:36.122Z,66.68
2023-05-05T04:32:38.850Z,96.32
2023-05-05T04:34:44.780Z,94.60
2023-05-05T04:36:47.257Z,108.85
2023-05-05T04:38:51.725Z,110.63
2023-05-05T04:40:54.374Z,104.28
2023-05-05T04:42:57.113Z,118.90
2023-05-05T04:44:59.800Z,278.23
2023-05-05T04:47:02.629Z,173.52
2023-05-05T04:49:06.108Z,219.80
2023-05-05T04:51:13.056Z,157.38
2023-05-05T04:53:16.429Z,222.32
2023-05-05T04:55:19.695Z,369.30
2023-05-05T04:57:22.659Z,433.80
2023-05-05T04:59:25.254Z,468.58
2023-05-05T05:01:27.899Z,417.88
2023-05-05T05:03:32.313Z,421.60
2023-05-05T05:05:35.071Z,473.50
2023-05-05T05:07:41.034Z,542.00
2023-05-05T05:09:43.637Z,541.20
2023-05-05T05:11:46.181Z,540.22
2023-05-05T05:13:48.815Z,451.92
2023-05-05T05:15:51.727Z,465.02
2023-05-05T05:17:57.576Z,414.05
2023-05-05T05:20:04.960Z,439.33
2023-05-05T05:22:09.189Z,455.05
2023-05-05T05:24:17.735Z,485.52
2023-05-05T05:26:20.468Z,436.38
2023-05-05T05:28:23.416Z,398.40
2023-05-05T05:30:30.291Z,374.02
2023-05-05T05:32:33.037Z,426.95
2023-05-05T05:34:36.589Z,424.08
2023-05-05T05:36:40.530Z,360.50
2023-05-05T05:38:45.994Z,351.40
2023-05-05T05:40:51.376Z,370.73
2023-05-05T05:42:54.107Z,384.65
2023-05-05T05:44:58.912Z,356.77
2023-05-05T05:47:01.990Z,388.75
2023-05-05T05:49:04.842Z,334.30
2023-05-05T05:51:10.489Z,301.88
2023-05-05T05:53:13.396Z,263.23
2023-05-05T05:55:16.463Z,244.23
2023-05-05T05:57:22.645Z,222.27
2023-05-05T05:59:25.483Z,187.93
2023-05-05T06:01:28.200Z,167.27
2023-05-05T06:03:31.047Z,146.43
2023-05-05T06:05:36.941Z,132.90
2023-05-05T06:07:40.290Z,172.45
2023-05-05T06:09:43.004Z,154.20
2023-05-05T06:11:45.740Z,140.63
2023-05-05T06:13:53.641Z,150.18
2023-05-05T06:15:56.243Z,193.88
2023-05-05T06:17:58.909Z,197.00
2023-05-05T06:20:02.378Z,274.40
2023-05-05T06:22:05.323Z,200.93
2023-05-05T06:24:08.132Z,204.00
2023-05-05T06:26:11.628Z,199.07
2023-05-05T06:28:14.207Z,155.23
2023-05-05T06:30:20.981Z,151.15
2023-05-05T06:32:23.560Z,195.63
2023-05-05T06:34:26.091Z,167.95
2023-05-05T06:36:28.615Z,159.63
2023-05-05T06:38:31.204Z,161.18
2023-05-05T06:40:33.754Z,153.80
2023-05-05T06:42:36.483Z,139.73
2023-05-05T06:44:41.661Z,178.88
2023-05-05T06:46:46.905Z,204.10
2023-05-05T06:48:49.489Z,209.07
2023-05-05T06:50:52.438Z,179.57
2023-05-05T06:52:54.972Z,248.73
2023-05-05T06:54:57.439Z,207.43
2023-05-05T06:56:59.872Z,187.00
2023-05-05T06:59:02.877Z,200.77
2023-05-05T07:01:05.715Z,185.68
2023-05-05T07:03:10.781Z,205.93
2023-05-05T07:05:13.451Z,169.27
2023-05-05T07:07:16.939Z,158.77
2023-05-05T07:11:23.025Z,215.75
2023-05-05T07:13:25.652Z,205.25
2023-05-05T07:15:29.666Z,122.07
2023-05-05T07:19:37.376Z,308.17
2023-05-05T07:21:39.942Z,238.88
2023-05-05T07:23:42.507Z,330.13
2023-05-05T07:25:44.974Z,204.75
2023-05-05T07:27:47.494Z,130.82
2023-05-05T07:29:50.219Z,135.88
2023-05-05T07:31:53.342Z,194.57
2023-05-05T07:33:56.042Z,286.85
2023-05-05T07:36:01.216Z,378.65
2023-05-05T07:38:04.081Z,494.17
2023-05-05T07:40:08.324Z,367.92
2023-05-05T07:42:11.116Z,420.92
2023-05-05T07:44:13.633Z,487.58
2023-05-05T07:46:16.203Z,374.05
2023-05-05T07:48:18.862Z,408.35
2023-05-05T07:50:21.596Z,418.05
2023-05-05T07:52:43.328Z,466.52
2023-05-05T07:54:48.719Z,404.30
2023-05-05T07:56:51.419Z,415.85
2023-05-05T07:58:54.067Z,331.98
2023-05-05T08:00:56.750Z,470.88
2023-05-05T08:02:59.254Z,289.30
2023-05-05T08:05:01.731Z,478.50
2023-05-05T08:07:05.512Z,409.85
2023-05-05T08:09:10.885Z,435.85
2023-05-05T08:11:14.376Z,287.17
2023-05-05T08:13:16.996Z,379.25
2023-05-05T08:15:19.731Z,327.25
2023-05-05T08:17:22.354Z,301.88
2023-05-05T08:19:29.264Z,325.73
2023-05-05T08:21:33.385Z,411.55
2023-05-05T08:23:36.973Z,425.25
2023-05-05T08:25:42.123Z,414.67
2023-05-05T08:27:45.190Z,306.48
2023-05-05T08:29:47.759Z,389.80
2023-05-05T08:31:50.567Z,294.55
2023-05-05T08:33:53.035Z,314.92
2023-05-05T08:35:55.815Z,270.30
2023-05-05T08:37:59.335Z,256.40
2023-05-05T08:40:01.888Z,237.88
2023-05-05T08:42:07.221Z,191.82
2023-05-05T08:44:10.768Z,366.45
2023-05-05T08:46:13.601Z,275.00
2023-05-05T08:48:19.608Z,201.82
2023-05-05T08:50:28.617Z,229.73
2023-05-05T08:52:37.946Z,267.88
2023-05-05T08:54:46.751Z,131.13
2023-05-05T08:56:51.908Z,181.88
2023-05-05T08:58:57.724Z,89.18
2023-05-05T09:01:01.726Z,104.82
2023-05-05T09:03:06.075Z,89.45
2023-05-05T09:05:09.977Z,112.82
2023-05-05T09:07:15.728Z,85.72
2023-05-05T09:09:18.737Z,176.10
2023-05-05T09:11:23.426Z,84.35
2023-05-05T09:13:29.786Z,75.82
2023-05-05T09:15:36.342Z,76.47
2023-05-05T09:17:39.511Z,77.15
2023-05-05T09:20:01.504Z,64.77
2023-05-05T09:22:04.356Z,82.93
2023-05-05T09:24:11.740Z,84.80
2023-05-05T09:26:14.652Z,144.13
2023-05-05T09:28:18.496Z,71.85
2023-05-05T09:30:26.219Z,51.58
2023-05-05T09:32:42.889Z,114.35
2023-05-05T09:34:57.602Z,49.00
2023-05-05T09:37:00.060Z,48.38
2023-05-05T09:39:07.610Z,151.23
2023-05-05T09:41:10.106Z,41.58
2023-05-05T09:43:12.636Z,90.18
2023-05-05T09:45:27.952Z,217.20
2023-05-05T09:47:39.295Z,75.78
2023-05-05T09:49:41.903Z,25.02
2023-05-05T09:51:44.470Z,20.05
2023-05-05T09:53:46.952Z,18.92
2023-05-05T09:55:56.400Z,28.88
2023-05-05T09:58:17.652Z,35.47
2023-05-05T10:00:20.743Z,38.15
2023-05-05T10:02:36.073Z,28.58
2023-05-05T10:04:41.394Z,83.68
2023-05-05T10:06:44.888Z,19.83
2023-05-05T10:09:01.783Z,55.72
2023-05-05T10:11:07.178Z,38.17
2023-05-05T10:13:12.825Z,21.77
2023-05-05T10:15:16.889Z,65.38
2023-05-05T10:17:22.525Z,151.68
2023-05-05T10:19:27.006Z,142.00
2023-05-05T10:21:34.446Z,135.07
2023-05-05T10:23:41.369Z,357.60
2023-05-05T10:25:50.779Z,213.45
2023-05-05T10:27:56.734Z,66.47
2023-05-05T10:30:04.227Z,22.75
2023-05-05T10:32:46.646Z,51.67
2023-05-05T10:34:51.496Z,51.00
2023-05-05T10:36:57.736Z,158.48
2023-05-05T10:39:09.239Z,93.07
2023-05-05T10:41:14.076Z,31.35
2023-05-05T10:43:16.932Z,46.10
2023-05-05T10:45:19.685Z,54.65
2023-05-05T10:47:23.783Z,36.28
2023-05-05T10:51:53.153Z,30.85
2023-05-05T10:54:04.756Z,81.03
2023-05-05T10:56:15.568Z,391.25
2023-05-05T10:58:40.769Z,335.63
2023-05-05T11:00:51.318Z,58.50
2023-05-05T11:03:19.824Z,300.15
2023-05-05T11:05:22.833Z,131.73
2023-05-05T11:07:26.307Z,247.65
2023-05-05T11:09:33.320Z,590.00
2023-05-05T11:12:02.091Z,400.85
2023-05-05T11:14:21.435Z,100.55
2023-05-05T11:16:50.715Z,74.03
2023-05-05T11:18:53.236Z,133.57
2023-05-05T11:21:17.501Z,73.80
2023-05-05T11:23:23.387Z,48.15
2023-05-05T11:25:48.993Z,60.78
2023-05-05T11:28:07.282Z,339.65
2023-05-05T11:30:11.699Z,373.75
2023-05-05T11:32:16.069Z,511.60
2023-05-05T11:34:27.009Z,136.82
2023-05-05T11:36:42.167Z,90.82
2023-05-05T11:39:07.530Z,508.38
2023-05-05T11:41:18.013Z,88.57
2023-05-05T11:43:20.724Z,239.07
2023-05-05T11:45:24.701Z,423.73
2023-05-05T11:49:32.247Z,104.72
2023-05-05T11:51:34.945Z,677.47
2023-05-05T11:53:37.754Z,87.63
2023-05-05T11:55:41.374Z,286.55
2023-05-05T11:57:46.481Z,501.60
2023-05-05T11:59:54.867Z,246.65
2023-05-05T12:01:57.825Z,318.65
2023-05-05T12:04:00.821Z,381.02
2023-05-05T12:06:03.780Z,61.27
2023-05-05T12:08:08.415Z,560.45
2023-05-05T12:10:11.598Z,70.32
2023-05-05T12:12:15.385Z,77.97
2023-05-05T12:14:23.079Z,91.38
2023-05-05T12:16:25.899Z,545.45
2023-05-05T12:18:28.351Z,305.75
2023-05-05T12:20:32.699Z,333.83
2023-05-05T12:22:35.705Z,80.88
2023-05-05T12:24:38.194Z,169.25
2023-05-05T12:26:41.516Z,79.25
2023-05-05T12:28:46.703Z,196.30
2023-05-05T12:30:59.699Z,244.90
2023-05-05T12:33:04.117Z,168.52
2023-05-05T12:35:08.279Z,326.45
2023-05-05T12:37:11.156Z,188.82
2023-05-05T12:39:13.634Z,177.02
2023-05-05T12:41:19.352Z,131.45
2023-05-05T12:43:30.017Z,407.13
2023-05-05T12:45:36.319Z,531.13
2023-05-05T12:47:44.149Z,491.13
2023-05-05T12:49:48.094Z,383.48
2023-05-05T12:51:55.214Z,260.70
2023-05-05T12:54:05.130Z,445.48
2023-05-05T12:56:25.325Z,246.63
2023-05-05T12:58:29.356Z,112.25
2023-05-05T13:02:35.317Z,101.65
2023-05-05T13:04:48.930Z,183.93
2023-05-05T13:07:08.369Z,119.40
2023-05-05T13:09:23.521Z,341.73
2023-05-05T13:11:28.534Z,630.00
2023-05-05T13:13:32.683Z,545.20
2023-05-05T13:15:43.458Z,450.50
2023-05-05T13:17:46.093Z,210.68
2023-05-05T13:19:52.341Z,100.20
2023-05-05T13:21:55.886Z,247.20
2023-05-05T13:24:05.137Z,190.82
2023-05-05T13:26:11.368Z,107.63
2023-05-05T13:28:14.043Z,139.43
2023-05-05T13:30:16.681Z,415.63
2023-05-05T13:32:19.161Z,297.20
2023-05-05T13:34:21.852Z,625.80
2023-05-05T13:36:27.297Z,544.78
2023-05-05T13:38:34.779Z,415.95
2023-05-05T13:40:37.340Z,307.70
2023-05-05T13:42:40.904Z,533.60
2023-05-05T13:44:44.550Z,631.50
2023-05-05T13:46:47.283Z,566.20
2023-05-05T13:48:49.712Z,585.63
2023-05-05T13:50:52.180Z,567.65
2023-05-05T13:52:57.778Z,537.63
2023-05-05T13:55:01.987Z,524.97
2023-05-05T13:57:05.036Z,469.33
2023-05-05T13:59:09.160Z,440.15
2023-05-05T14:03:14.019Z,427.90
2023-05-05T14:05:16.552Z,404.58
2023-05-05T14:07:19.095Z,310.70
2023-05-05T14:09:24.297Z,254.48
2023-05-05T14:11:26.897Z,176.77
2023-05-05T14:13:29.581Z,108.55
2023-05-05T14:15:32.778Z,83.63
2023-05-05T14:17:36.381Z,50.05
2023-05-05T14:19:39.426Z,99.60
2023-05-05T14:21:42.024Z,51.40
2023-05-05T14:23:44.486Z,20.92
2023-05-05T14:25:49.895Z,16.30
2023-05-05T14:27:53.090Z,25.77
2023-05-05T14:29:55.974Z,14.10
2023-05-05T14:31:58.635Z,15.88
2023-05-05T14:34:03.004Z,16.30
2023-05-05T14:36:06.287Z,19.77
2023-05-05T14:38:09.007Z,25.85
2023-05-05T14:40:11.940Z,17.23
2023-05-05T14:42:20.067Z,17.05
2023-05-05T14:44:22.480Z,19.05
2023-05-05T14:46:25.077Z,17.45
2023-05-05T14:48:29.645Z,18.35
2023-05-05T14:50:32.214Z,18.35
2023-05-05T14:52:34.800Z,18.13
2023-05-05T14:54:37.253Z,16.65
2023-05-05T14:56:39.853Z,11.48
2023-05-05T14:58:44.994Z,14.38
2023-05-05T15:00:47.589Z,10.45
2023-05-05T15:02:50.132Z,13.20
2023-05-05T15:04:53.393Z,13.95
2023-05-05T15:06:55.867Z,10.63
2023-05-05T15:08:58.419Z,8.82
2023-05-05T15:11:01.078Z,11.43
2023-05-05T15:13:06.369Z,14.60
2023-05-05T15:15:14.031Z,12.07
2023-05-05T15:17:19.438Z,9.23
2023-05-05T15:19:22.765Z,15.75
2023-05-05T15:21:25.249Z,10.57
2023-05-05T15:23:27.840Z,14.65
2023-05-05T15:25:33.448Z,13.98
2023-05-05T15:27:37.600Z,10.18
2023-05-05T15:29:40.124Z,10.27
2023-05-05T15:31:45.322Z,12.77
2023-05-05T15:33:49.650Z,11.10
2023-05-05T15:35:52.154Z,14.07
2023-05-05T15:37:55.005Z,7.82
2023-05-05T15:39:57.693Z,9.55
2023-05-05T15:42:05.293Z,11.85
2023-05-05T15:44:07.965Z,13.73
2023-05-05T15:46:10.473Z,9.80
2023-05-05T15:48:15.973Z,13.02
2023-05-05T15:50:18.608Z,14.15
2023-05-05T15:52:21.019Z,15.65
2023-05-05T15:54:23.512Z,15.98
2023-05-05T15:56:27.611Z,14.75
2023-05-05T15:58:30.062Z,13.55
2023-05-05T16:00:32.684Z,16.88
2023-05-05T16:02:35.306Z,17.08
2023-05-05T16:04:40.536Z,13.98
2023-05-05T16:06:43.122Z,16.20
2023-05-05T16:08:47.953Z,15.85
2023-05-05T16:10:50.362Z,15.07
2023-05-05T16:12:54.675Z,16.95
2023-05-05T16:14:57.274Z,14.07
2023-05-05T16:17:01.109Z,16.50
2023-05-05T16:21:11.243Z,14.20
2023-05-05T16:23:14.326Z,15.82
2023-05-05T16:25:18.516Z,17.90
2023-05-05T16:29:23.290Z,12.30
2023-05-05T16:31:25.973Z,13.65
2023-05-05T16:33:29.002Z,12.93
2023-05-05T16:35:31.631Z,16.08
2023-05-05T16:37:36.763Z,14.02
2023-05-05T16:39:40.497Z,14.93
2023-05-05T16:41:43.068Z,15.55
2023-05-05T16:43:46.524Z,18.30
2023-05-05T16:45:49.210Z,17.75
2023-05-05T16:47:54.826Z,18.42
2023-05-05T16:49:57.528Z,15.75
2023-05-05T16:52:00.133Z,16.25
2023-05-05T16:54:06.039Z,16.08
2023-05-05T16:56:11.958Z,15.38
2023-05-05T16:58:14.461Z,19.67
2023-05-05T17:00:19.664Z,14.88
2023-05-05T17:02:23.115Z,16.45
2023-05-05T17:04:26.206Z,18.77
2023-05-05T17:06:32.096Z,17.42
2023-05-05T17:08:34.553Z,11.02
2023-05-05T17:10:39.819Z,11.90
2023-05-05T17:12:42.664Z,9.30
2023-05-05T17:14:47.946Z,6.43
2023-05-05T17:16:54.591Z,8.60
2023-05-05T17:18:57.190Z,10.40
2023-05-05T17:20:59.809Z,13.90
2023-05-05T17:23:03.737Z,11.55
2023-05-05T17:25:07.416Z,8.27
2023-05-05T17:27:13.977Z,16.10
2023-05-05T17:29:20.398Z,12.80
2023-05-05T17:31:23.153Z,11.00
2023-05-05T17:33:25.960Z,13.13
2023-05-05T17:35:28.555Z,19.38
2023-05-05T17:37:31.534Z,13.23
2023-05-05T17:39:34.018Z,18.63
2023-05-05T17:41:36.691Z,20.52
2023-05-05T17:43:41.727Z,14.25
2023-05-05T17:45:45.756Z,14.32
2023-05-05T17:47:48.422Z,15.30
2023-05-05T17:49:54.571Z,16.17
2023-05-05T17:51:57.601Z,17.30
2023-05-05T17:54:00.133Z,16.33
2023-05-05T17:56:08.580Z,19.73
2023-05-05T17:58:11.527Z,15.32
2023-05-05T18:00:18.418Z,18.63
2023-05-05T18:02:21.443Z,19.45
2023-05-05T18:04:24.176Z,16.58
2023-05-05T18:06:27.142Z,12.75
2023-05-05T18:08:30.062Z,13.10
2023-05-05T18:10:32.682Z,12.55
2023-05-05T18:12:36.015Z,17.08
2023-05-05T18:14:38.505Z,15.70
2023-05-05T18:16:48.871Z,18.55
2023-05-05T18:18:51.472Z,15.60
2023-05-05T18:20:54.137Z,13.10
2023-05-05T18:22:56.611Z,11.85
2023-05-05T18:25:00.159Z,13.00
2023-05-05T18:27:02.713Z,11.93
2023-05-05T18:29:05.207Z,11.48
2023-05-05T18:31:08.376Z,12.18
2023-05-05T18:33:13.610Z,12.47
2023-05-05T18:35:16.425Z,10.15
2023-05-05T18:37:18.951Z,11.23
2023-05-05T18:39:21.540Z,10.35
2023-05-05T18:41:24.031Z,9.80
2023-05-05T18:43:26.645Z,10.13
2023-05-05T18:45:29.316Z,9.88
2023-05-05T18:47:31.993Z,9.77
2023-05-05T18:49:38.863Z,11.52
2023-05-05T18:51:43.744Z,11.73
2023-05-05T18:53:47.738Z,12.60
2023-05-05T18:55:50.204Z,8.98
2023-05-05T18:57:53.467Z,12.75
2023-05-05T18:59:56.296Z,13.53
2023-05-05T19:01:59.775Z,12.40
2023-05-05T19:04:02.303Z,9.75
2023-05-05T19:06:08.636Z,9.65
2023-05-05T19:08:11.213Z,8.98
2023-05-05T19:10:13.809Z,8.30
2023-05-05T19:12:16.654Z,7.53
2023-05-05T19:14:19.232Z,7.25
2023-05-05T19:16:22.034Z,9.18
2023-05-05T19:18:24.960Z,7.25
2023-05-05T19:20:31.859Z,6.75
2023-05-05T19:22:39.458Z,7.10
2023-05-05T19:24:42.147Z,6.20
2023-05-05T19:26:45.863Z,8.52
2023-05-05T19:28:48.303Z,9.10
2023-05-05T19:30:52.006Z,11.18
2023-05-05T19:32:54.572Z,9.65
2023-05-05T19:34:58.281Z,9.82
2023-05-05T19:37:00.897Z,14.52
2023-05-05T19:39:06.181Z,13.68
2023-05-05T19:41:11.721Z,13.27
2023-05-05T19:43:14.197Z,10.45
2023-05-05T19:45:16.902Z,12.20
2023-05-05T19:47:19.345Z,15.80
2023-05-05T19:49:21.856Z,12.65
2023-05-05T19:51:24.374Z,12.82
2023-05-05T19:53:27.995Z,11.52
2023-05-05T19:55:33.403Z,10.98
2023-05-05T19:57:36.107Z,9.27
2023-05-05T19:59:38.974Z,7.07
2023-05-05T20:01:41.713Z,10.65
2023-05-05T20:03:44.300Z,9.05
2023-05-05T20:05:46.963Z,7.57
2023-05-05T20:07:51.062Z,7.38
2023-05-05T20:11:59.138Z,6.93
2023-05-05T20:14:01.690Z,7.43
2023-05-05T20:16:04.905Z,10.52
2023-05-05T20:18:07.869Z,10.50
2023-05-05T20:20:12.004Z,11.57
2023-05-05T20:22:16.074Z,10.20
2023-05-05T20:24:18.790Z,8.75
2023-05-05T20:26:29.833Z,7.50
2023-05-05T20:28:36.289Z,8.90
2023-05-05T20:30:38.992Z,8.40
2023-05-05T20:32:42.152Z,8.25
2023-05-05T20:34:48.357Z,8.15
2023-05-05T20:36:50.963Z,8.68
2023-05-05T20:38:53.678Z,8.32
2023-05-05T20:40:56.574Z,8.48
2023-05-05T20:42:59.427Z,7.45
2023-05-05T20:45:05.894Z,9.07
2023-05-05T20:47:10.303Z,12.02
2023-05-05T20:49:13.152Z,12.30
2023-05-05T20:51:15.960Z,11.40
2023-05-05T20:53:19.399Z,13.38
2023-05-05T20:55:25.289Z,14.63
2023-05-05T20:57:28.165Z,11.10
2023-05-05T20:59:30.768Z,13.48
2023-05-05T21:01:36.260Z,14.48
2023-05-05T21:03:38.947Z,15.30
2023-05-05T21:05:41.897Z,10.75
2023-05-05T21:07:45.045Z,11.43
2023-05-05T21:09:47.942Z,16.88
2023-05-05T21:11:50.601Z,13.18
2023-05-05T21:13:53.303Z,9.77
2023-05-05T21:15:55.756Z,8.95
2023-05-05T21:18:03.218Z,10.43
2023-05-05T21:20:08.043Z,7.75
2023-05-05T21:22:11.067Z,10.05
2023-05-05T21:24:14.345Z,9.60
2023-05-05T21:26:19.563Z,11.95
2023-05-05T21:28:22.370Z,12.00
2023-05-05T21:30:26.321Z,8.45
2023-05-05T21:32:28.984Z,9.57
2023-05-05T21:34:36.588Z,9.15
2023-05-05T21:36:39.345Z,10.45
2023-05-05T21:38:45.865Z,8.82
2023-05-05T21:40:56.404Z,8.85
2023-05-05T21:42:59.312Z,9.02
2023-05-05T21:45:02.054Z,10.63
2023-05-05T21:47:06.387Z,8.52
2023-05-05T21:49:14.010Z,8.98
2023-05-05T21:51:23.468Z,8.50
2023-05-05T21:53:28.590Z,7.80
2023-05-05T21:55:31.795Z,8.98
2023-05-05T21:57:34.309Z,10.60
2023-05-05T21:59:37.030Z,9.90
2023-05-05T22:01:40.176Z,8.48
2023-05-05T22:03:43.973Z,10.40
2023-05-05T22:05:48.051Z,13.85
2023-05-05T22:07:53.086Z,10.00
2023-05-05T22:09:56.561Z,12.73
2023-05-05T22:11:59.077Z,11.88
2023-05-05T22:14:07.942Z,13.93
2023-05-05T22:16:19.347Z,11.52
2023-05-05T22:18:21.925Z,9.52
2023-05-05T22:20:28.901Z,10.38
2023-05-05T22:22:31.884Z,12.05
2023-05-05T22:24:37.040Z,13.07
2023-05-05T22:26:50.708Z,13.57
2023-05-05T22:29:00.629Z,13.50
2023-05-05T22:31:04.720Z,11.95
2023-05-05T22:33:07.487Z,12.48
2023-05-05T22:35:10.517Z,13.57
2023-05-05T22:37:14.358Z,14.25
2023-05-05T22:39:18.776Z,16.88
2023-05-05T22:41:24.013Z,15.65
2023-05-05T22:43:27.046Z,15.52
2023-05-05T22:45:29.606Z,16.10
2023-05-05T22:47:32.243Z,13.07
2023-05-05T22:49:35.304Z,14.13
2023-05-05T22:51:37.982Z,14.35
2023-05-05T22:53:41.066Z,14.02
2023-05-05T22:55:43.638Z,15.40
2023-05-05T22:57:50.176Z,13.85
2023-05-05T22:59:52.753Z,14.30
2023-05-05T23:01:55.717Z,15.48
2023-05-05T23:04:01.367Z,15.02
2023-05-05T23:06:04.230Z,13.57
2023-05-05T23:08:09.154Z,16.02
2023-05-05T23:10:11.854Z,15.05
2023-05-05T23:12:14.505Z,15.20
2023-05-05T23:14:19.762Z,14.77
2023-05-05T23:16:31.209Z,17.30
2023-05-05T23:18:36.267Z,19.45
2023-05-05T23:20:38.763Z,20.80
2023-05-05T23:22:45.676Z,21.45
2023-05-05T23:24:48.161Z,20.92
2023-05-05T23:26:52.088Z,23.10
2023-05-05T23:28:54.610Z,20.17
2023-05-05T23:31:00.063Z,22.55
2023-05-05T23:33:04.203Z,25.75
2023-05-05T23:35:08.073Z,28.00
2023-05-05T23:37:11.044Z,27.58
2023-05-05T23:39:13.812Z,27.70
2023-05-05T23:41:16.378Z,28.27
2023-05-05T23:43:20.493Z,26.73
2023-05-05T23:45:23.035Z,24.52
2023-05-05T23:47:28.209Z,24.65
2023-05-05T23:49:30.743Z,25.02
2023-05-05T23:51:33.300Z,20.17
2023-05-05T23:53:36.034Z,22.35
2023-05-05T23:55:38.583Z,20.17
2023-05-05T23:57:41.053Z,21.98
2023-05-05T23:59:43.613Z,22.75
